Portada
METAR-TAF:

METAR-TAF

Aeroports :

Bournemouth, Anglaterra

latitud: 50-47N, longitud: 001-50W, altitud: 11 m

Observació

L'informe es va fer fa 2 hores i 54 minuts, a les 20:20 UTC
Vent 5 kt del Sud-Oest
Temperatura 17°C
Humitat 55%
Pressió 1027 hPa
Visibilitat 10 km o més
sense núvols per sota de 1500 mi sense presència de cumulonimbus.

METAR: EGHH 122020Z 23005KT CAVOK 17/08 Q1027

Hora: 00:14 (23:14 UTC)

Pronòstic

L'informe es va fer fa 9 hores i 18 minuts, a les 13:56 UTC
Pronòstic vàlid del 12 a les 15 UTC al 12 a les 24 UTC
Vent 10 kt del Sud
Visibilitat 10 km o més
sense núvols per sota de 1500 mi sense presència de cumulonimbus.
Evolucionant progressivament
l' 12 a les 19 UTC al 12 a les 21 UTC
Vent 2 kt amb direcció variable

TAF: EGHH 121356Z 1215/1224 18010KT CAVOK BECMG 1219/1221 VRB02KT

Observacions i pronòstics meteorològics de més de 4000 aeroports (METAR i TAF).

Les estacions disponibles són els punts grocs i vermells al mapa.

Posi el ratolí al punt desitjat per veure el nom de l'estació.

Feu clic per veure les observacions i els pronòstics meteorològics.

Per canviar el mapa: feu clic els botons verds amb una creu de color negre per apropar; al botó verd amb un guió per allunyar la imatge; o en les fletxes verdes per a mapes adjacents.


METAR-TAF: